sensor_id;sensor_type;location;lat;lon;timestamp;P1;durP1;ratioP1;P2;durP2;ratioP2
56307;SDS011;42217;50.422;7.210;2022-07-30T00:00:17;4.75;;;4.28;;
56307;SDS011;42217;50.422;7.210;2022-07-30T00:02:42;5.25;;;3.03;;
56307;SDS011;42217;50.422;7.210;2022-07-30T00:05:08;5.22;;;2.60;;
56307;SDS011;42217;50.422;7.210;2022-07-30T00:07:34;7.68;;;3.08;;
56307;SDS011;42217;50.422;7.210;2022-07-30T00:10:00;4.20;;;2.83;;
56307;SDS011;42217;50.422;7.210;2022-07-30T00:12:27;4.20;;;3.33;;
56307;SDS011;42217;50.422;7.210;2022-07-30T00:14:53;7.22;;;4.05;;
56307;SDS011;42217;50.422;7.210;2022-07-30T00:17:19;6.72;;;3.22;;
56307;SDS011;42217;50.422;7.210;2022-07-30T00:19:44;4.28;;;2.95;;
56307;SDS011;42217;50.422;7.210;2022-07-30T00:22:11;8.20;;;3.92;;
56307;SDS011;42217;50.422;7.210;2022-07-30T00:24:37;5.65;;;3.53;;
56307;SDS011;42217;50.422;7.210;2022-07-30T00:27:02;6.53;;;3.60;;
56307;SDS011;42217;50.422;7.210;2022-07-30T00:29:28;10.45;;;3.20;;
56307;SDS011;42217;50.422;7.210;2022-07-30T00:31:54;6.82;;;3.03;;
56307;SDS011;42217;50.422;7.210;2022-07-30T00:34:20;5.10;;;3.60;;
56307;SDS011;42217;50.422;7.210;2022-07-30T00:36:46;10.00;;;3.83;;
56307;SDS011;42217;50.422;7.210;2022-07-30T00:39:12;7.00;;;4.15;;
56307;SDS011;42217;50.422;7.210;2022-07-30T00:41:51;6.82;;;4.72;;
56307;SDS011;42217;50.422;7.210;2022-07-30T00:44:20;10.85;;;4.30;;
56307;SDS011;42217;50.422;7.210;2022-07-30T00:46:45;5.75;;;3.53;;
56307;SDS011;42217;50.422;7.210;2022-07-30T00:49:11;5.13;;;3.97;;
56307;SDS011;42217;50.422;7.210;2022-07-30T00:51:37;6.88;;;3.72;;
56307;SDS011;42217;50.422;7.210;2022-07-30T00:54:02;11.50;;;4.35;;
56307;SDS011;42217;50.422;7.210;2022-07-30T00:56:28;8.88;;;3.55;;
56307;SDS011;42217;50.422;7.210;2022-07-30T00:58:54;6.68;;;3.83;;
56307;SDS011;42217;50.422;7.210;2022-07-30T01:01:19;6.28;;;4.20;;
56307;SDS011;42217;50.422;7.210;2022-07-30T01:03:45;8.02;;;3.80;;
56307;SDS011;42217;50.422;7.210;2022-07-30T01:06:11;11.23;;;3.53;;
56307;SDS011;42217;50.422;7.210;2022-07-30T01:08:37;6.30;;;2.92;;
56307;SDS011;42217;50.422;7.210;2022-07-30T01:11:02;3.60;;;3.05;;
56307;SDS011;42217;50.422;7.210;2022-07-30T01:13:28;4.28;;;3.15;;
56307;SDS011;42217;50.422;7.210;2022-07-30T01:15:54;4.88;;;3.17;;
56307;SDS011;42217;50.422;7.210;2022-07-30T01:18:22;7.22;;;3.33;;
56307;SDS011;42217;50.422;7.210;2022-07-30T01:21:10;6.72;;;4.00;;
56307;SDS011;42217;50.422;7.210;2022-07-30T01:23:41;9.65;;;4.90;;
56307;SDS011;42217;50.422;7.210;2022-07-30T01:26:10;8.65;;;3.63;;
56307;SDS011;42217;50.422;7.210;2022-07-30T01:28:42;5.90;;;4.33;;
56307;SDS011;42217;50.422;7.210;2022-07-30T01:31:13;10.07;;;4.28;;
56307;SDS011;42217;50.422;7.210;2022-07-30T01:33:41;3.63;;;3.30;;
56307;SDS011;42217;50.422;7.210;2022-07-30T01:36:10;5.30;;;3.67;;
56307;SDS011;42217;50.422;7.210;2022-07-30T01:38:39;7.75;;;3.30;;
56307;SDS011;42217;50.422;7.210;2022-07-30T01:41:07;6.88;;;3.72;;
56307;SDS011;42217;50.422;7.210;2022-07-30T01:43:34;8.65;;;3.65;;
56307;SDS011;42217;50.422;7.210;2022-07-30T01:46:03;5.78;;;3.42;;
56307;SDS011;42217;50.422;7.210;2022-07-30T01:48:30;8.85;;;4.45;;
56307;SDS011;42217;50.422;7.210;2022-07-30T01:51:05;10.65;;;4.15;;
56307;SDS011;42217;50.422;7.210;2022-07-30T01:53:31;6.07;;;4.68;;
56307;SDS011;42217;50.422;7.210;2022-07-30T01:56:00;7.00;;;3.95;;
56307;SDS011;42217;50.422;7.210;2022-07-30T01:58:28;6.93;;;4.97;;
56307;SDS011;42217;50.422;7.210;2022-07-30T02:00:58;6.70;;;4.63;;
56307;SDS011;42217;50.422;7.210;2022-07-30T02:03:24;7.03;;;4.70;;
56307;SDS011;42217;50.422;7.210;2022-07-30T02:06:00;12.10;;;5.25;;
56307;SDS011;42217;50.422;7.210;2022-07-30T02:11:11;5.90;;;3.60;;
56307;SDS011;42217;50.422;7.210;2022-07-30T02:13:51;8.55;;;3.80;;
56307;SDS011;42217;50.422;7.210;2022-07-30T02:16:23;7.30;;;4.28;;
56307;SDS011;42217;50.422;7.210;2022-07-30T02:19:13;10.07;;;4.03;;
56307;SDS011;42217;50.422;7.210;2022-07-30T02:21:48;5.00;;;4.20;;
56307;SDS011;42217;50.422;7.210;2022-07-30T02:24:21;4.75;;;3.97;;
56307;SDS011;42217;50.422;7.210;2022-07-30T02:26:54;6.00;;;3.30;;
56307;SDS011;42217;50.422;7.210;2022-07-30T02:29:25;7.13;;;4.10;;
56307;SDS011;42217;50.422;7.210;2022-07-30T02:31:51;5.97;;;3.83;;
56307;SDS011;42217;50.422;7.210;2022-07-30T02:34:20;5.35;;;2.72;;
56307;SDS011;42217;50.422;7.210;2022-07-30T02:36:48;5.38;;;3.72;;
56307;SDS011;42217;50.422;7.210;2022-07-30T02:39:15;5.80;;;4.18;;
56307;SDS011;42217;50.422;7.210;2022-07-30T02:41:43;4.88;;;4.20;;
56307;SDS011;42217;50.422;7.210;2022-07-30T02:44:10;5.00;;;4.05;;
56307;SDS011;42217;50.422;7.210;2022-07-30T02:46:36;4.25;;;3.85;;
56307;SDS011;42217;50.422;7.210;2022-07-30T02:49:04;6.50;;;4.20;;
56307;SDS011;42217;50.422;7.210;2022-07-30T02:51:31;5.38;;;3.90;;
56307;SDS011;42217;50.422;7.210;2022-07-30T02:53:58;9.35;;;6.07;;
56307;SDS011;42217;50.422;7.210;2022-07-30T02:56:25;9.75;;;5.00;;
56307;SDS011;42217;50.422;7.210;2022-07-30T02:58:53;11.45;;;6.28;;
56307;SDS011;42217;50.422;7.210;2022-07-30T03:01:21;8.27;;;6.00;;
56307;SDS011;42217;50.422;7.210;2022-07-30T03:03:49;5.80;;;4.63;;
56307;SDS011;42217;50.422;7.210;2022-07-30T03:06:16;5.13;;;4.35;;
56307;SDS011;42217;50.422;7.210;2022-07-30T03:08:44;10.98;;;5.00;;
56307;SDS011;42217;50.422;7.210;2022-07-30T03:11:10;5.88;;;5.28;;
56307;SDS011;42217;50.422;7.210;2022-07-30T03:13:37;9.43;;;6.55;;
56307;SDS011;42217;50.422;7.210;2022-07-30T03:16:03;7.88;;;7.07;;
56307;SDS011;42217;50.422;7.210;2022-07-30T03:18:33;8.68;;;6.63;;
56307;SDS011;42217;50.422;7.210;2022-07-30T03:21:00;7.28;;;6.68;;
56307;SDS011;42217;50.422;7.210;2022-07-30T03:23:28;7.55;;;6.47;;
56307;SDS011;42217;50.422;7.210;2022-07-30T03:25:58;7.68;;;6.80;;
56307;SDS011;42217;50.422;7.210;2022-07-30T03:28:26;11.57;;;7.57;;
56307;SDS011;42217;50.422;7.210;2022-07-30T03:30:55;10.90;;;7.65;;
56307;SDS011;42217;50.422;7.210;2022-07-30T03:33:21;11.32;;;5.93;;
56307;SDS011;42217;50.422;7.210;2022-07-30T03:35:48;8.65;;;6.43;;
56307;SDS011;42217;50.422;7.210;2022-07-30T03:38:15;6.65;;;6.05;;
56307;SDS011;42217;50.422;7.210;2022-07-30T03:40:43;8.82;;;6.15;;
56307;SDS011;42217;50.422;7.210;2022-07-30T03:43:10;7.30;;;5.97;;
56307;SDS011;42217;50.422;7.210;2022-07-30T03:45:37;9.40;;;5.70;;
56307;SDS011;42217;50.422;7.210;2022-07-30T03:48:08;8.10;;;5.78;;
56307;SDS011;42217;50.422;7.210;2022-07-30T03:50:36;9.20;;;6.45;;
56307;SDS011;42217;50.422;7.210;2022-07-30T03:53:04;7.47;;;5.50;;
56307;SDS011;42217;50.422;7.210;2022-07-30T03:55:30;14.80;;;5.55;;
56307;SDS011;42217;50.422;7.210;2022-07-30T03:57:57;8.88;;;5.18;;
56307;SDS011;42217;50.422;7.210;2022-07-30T04:00:25;5.70;;;4.07;;
56307;SDS011;42217;50.422;7.210;2022-07-30T04:02:52;7.80;;;4.90;;
56307;SDS011;42217;50.422;7.210;2022-07-30T04:05:18;8.27;;;4.57;;
56307;SDS011;42217;50.422;7.210;2022-07-30T04:07:44;7.97;;;5.35;;
56307;SDS011;42217;50.422;7.210;2022-07-30T04:10:10;8.48;;;4.15;;
56307;SDS011;42217;50.422;7.210;2022-07-30T04:12:36;7.35;;;4.75;;
56307;SDS011;42217;50.422;7.210;2022-07-30T04:15:02;7.05;;;4.60;;
56307;SDS011;42217;50.422;7.210;2022-07-30T04:17:39;5.18;;;4.53;;
56307;SDS011;42217;50.422;7.210;2022-07-30T04:20:12;7.43;;;4.82;;
56307;SDS011;42217;50.422;7.210;2022-07-30T04:22:42;15.60;;;5.65;;
56307;SDS011;42217;50.422;7.210;2022-07-30T04:25:08;8.32;;;4.43;;
56307;SDS011;42217;50.422;7.210;2022-07-30T04:27:35;8.32;;;4.70;;
56307;SDS011;42217;50.422;7.210;2022-07-30T04:30:02;7.13;;;5.40;;
56307;SDS011;42217;50.422;7.210;2022-07-30T04:32:28;9.70;;;4.97;;
56307;SDS011;42217;50.422;7.210;2022-07-30T04:34:55;6.15;;;5.30;;
56307;SDS011;42217;50.422;7.210;2022-07-30T04:37:23;6.60;;;5.88;;
56307;SDS011;42217;50.422;7.210;2022-07-30T04:39:50;8.50;;;5.28;;
56307;SDS011;42217;50.422;7.210;2022-07-30T04:42:27;8.50;;;5.68;;
56307;SDS011;42217;50.422;7.210;2022-07-30T04:44:54;8.73;;;5.47;;
56307;SDS011;42217;50.422;7.210;2022-07-30T04:47:21;7.88;;;4.68;;
56307;SDS011;42217;50.422;7.210;2022-07-30T04:49:48;13.35;;;5.68;;
56307;SDS011;42217;50.422;7.210;2022-07-30T04:52:16;13.38;;;7.50;;
56307;SDS011;42217;50.422;7.210;2022-07-30T04:54:43;14.90;;;8.02;;
56307;SDS011;42217;50.422;7.210;2022-07-30T04:57:14;14.57;;;10.18;;
56307;SDS011;42217;50.422;7.210;2022-07-30T04:59:40;16.55;;;10.43;;
56307;SDS011;42217;50.422;7.210;2022-07-30T05:02:06;15.50;;;10.52;;
56307;SDS011;42217;50.422;7.210;2022-07-30T05:04:34;16.25;;;9.93;;
56307;SDS011;42217;50.422;7.210;2022-07-30T05:07:01;15.15;;;9.10;;
56307;SDS011;42217;50.422;7.210;2022-07-30T05:09:27;13.80;;;9.90;;
56307;SDS011;42217;50.422;7.210;2022-07-30T05:11:55;17.75;;;10.48;;
56307;SDS011;42217;50.422;7.210;2022-07-30T05:14:23;17.05;;;10.05;;
56307;SDS011;42217;50.422;7.210;2022-07-30T05:16:49;15.38;;;10.25;;
56307;SDS011;42217;50.422;7.210;2022-07-30T05:19:16;16.60;;;11.90;;
56307;SDS011;42217;50.422;7.210;2022-07-30T05:21:42;23.30;;;14.68;;
56307;SDS011;42217;50.422;7.210;2022-07-30T05:24:08;27.52;;;15.93;;
56307;SDS011;42217;50.422;7.210;2022-07-30T05:26:34;19.27;;;11.10;;
56307;SDS011;42217;50.422;7.210;2022-07-30T05:29:00;18.33;;;13.48;;
56307;SDS011;42217;50.422;7.210;2022-07-30T05:31:26;23.23;;;13.25;;
56307;SDS011;42217;50.422;7.210;2022-07-30T05:33:52;21.90;;;13.82;;
56307;SDS011;42217;50.422;7.210;2022-07-30T05:36:18;22.80;;;13.88;;
56307;SDS011;42217;50.422;7.210;2022-07-30T05:38:44;25.60;;;16.17;;
56307;SDS011;42217;50.422;7.210;2022-07-30T05:41:10;22.40;;;14.20;;
56307;SDS011;42217;50.422;7.210;2022-07-30T05:43:36;20.98;;;13.07;;
56307;SDS011;42217;50.422;7.210;2022-07-30T05:46:02;25.83;;;14.20;;
56307;SDS011;42217;50.422;7.210;2022-07-30T05:48:27;25.15;;;14.93;;
56307;SDS011;42217;50.422;7.210;2022-07-30T05:50:55;26.15;;;14.45;;
56307;SDS011;42217;50.422;7.210;2022-07-30T05:53:21;25.77;;;15.60;;
56307;SDS011;42217;50.422;7.210;2022-07-30T05:55:46;23.58;;;15.38;;
56307;SDS011;42217;50.422;7.210;2022-07-30T05:58:12;29.88;;;16.70;;
56307;SDS011;42217;50.422;7.210;2022-07-30T06:00:38;22.98;;;14.57;;
56307;SDS011;42217;50.422;7.210;2022-07-30T06:03:03;26.15;;;13.43;;
56307;SDS011;42217;50.422;7.210;2022-07-30T06:05:29;18.70;;;11.32;;
56307;SDS011;42217;50.422;7.210;2022-07-30T06:07:56;16.33;;;11.43;;
56307;SDS011;42217;50.422;7.210;2022-07-30T06:10:22;18.20;;;10.95;;
56307;SDS011;42217;50.422;7.210;2022-07-30T06:12:48;14.82;;;8.07;;
56307;SDS011;42217;50.422;7.210;2022-07-30T06:15:13;8.15;;;6.45;;
56307;SDS011;42217;50.422;7.210;2022-07-30T06:17:43;13.80;;;6.60;;
56307;SDS011;42217;50.422;7.210;2022-07-30T06:20:10;8.35;;;6.63;;
56307;SDS011;42217;50.422;7.210;2022-07-30T06:22:37;18.27;;;6.45;;
56307;SDS011;42217;50.422;7.210;2022-07-30T06:25:03;9.52;;;5.78;;
56307;SDS011;42217;50.422;7.210;2022-07-30T06:27:29;13.48;;;6.43;;
56307;SDS011;42217;50.422;7.210;2022-07-30T06:29:57;16.48;;;5.65;;
56307;SDS011;42217;50.422;7.210;2022-07-30T06:32:27;13.13;;;5.13;;
56307;SDS011;42217;50.422;7.210;2022-07-30T06:34:53;9.40;;;5.10;;
56307;SDS011;42217;50.422;7.210;2022-07-30T06:37:19;8.02;;;4.55;;
56307;SDS011;42217;50.422;7.210;2022-07-30T06:39:44;6.90;;;4.50;;
56307;SDS011;42217;50.422;7.210;2022-07-30T06:42:10;6.40;;;4.88;;
56307;SDS011;42217;50.422;7.210;2022-07-30T06:44:36;25.48;;;6.05;;
56307;SDS011;42217;50.422;7.210;2022-07-30T06:47:01;10.40;;;4.53;;
56307;SDS011;42217;50.422;7.210;2022-07-30T06:49:30;15.82;;;5.50;;
56307;SDS011;42217;50.422;7.210;2022-07-30T06:51:56;7.78;;;4.97;;
56307;SDS011;42217;50.422;7.210;2022-07-30T06:54:22;12.52;;;4.88;;
56307;SDS011;42217;50.422;7.210;2022-07-30T06:56:48;6.07;;;4.65;;
56307;SDS011;42217;50.422;7.210;2022-07-30T06:59:14;11.80;;;5.05;;
56307;SDS011;42217;50.422;7.210;2022-07-30T07:01:39;12.98;;;5.50;;
56307;SDS011;42217;50.422;7.210;2022-07-30T07:04:05;5.97;;;4.43;;
56307;SDS011;42217;50.422;7.210;2022-07-30T07:06:31;7.85;;;4.00;;
56307;SDS011;42217;50.422;7.210;2022-07-30T07:08:57;5.72;;;3.90;;
56307;SDS011;42217;50.422;7.210;2022-07-30T07:11:23;9.63;;;4.28;;
56307;SDS011;42217;50.422;7.210;2022-07-30T07:13:49;9.07;;;4.07;;
56307;SDS011;42217;50.422;7.210;2022-07-30T07:16:14;11.25;;;4.65;;
56307;SDS011;42217;50.422;7.210;2022-07-30T07:18:40;43.30;;;6.45;;
56307;SDS011;42217;50.422;7.210;2022-07-30T07:21:06;22.73;;;5.30;;
56307;SDS011;42217;50.422;7.210;2022-07-30T07:23:32;73.30;;;9.23;;
56307;SDS011;42217;50.422;7.210;2022-07-30T07:25:58;34.63;;;6.18;;
56307;SDS011;42217;50.422;7.210;2022-07-30T07:28:25;16.23;;;5.35;;
56307;SDS011;42217;50.422;7.210;2022-07-30T07:30:50;21.65;;;4.68;;
56307;SDS011;42217;50.422;7.210;2022-07-30T07:33:16;24.77;;;5.07;;
56307;SDS011;42217;50.422;7.210;2022-07-30T07:35:42;12.98;;;4.82;;
56307;SDS011;42217;50.422;7.210;2022-07-30T07:38:08;11.77;;;4.85;;
56307;SDS011;42217;50.422;7.210;2022-07-30T07:40:34;7.03;;;4.63;;
56307;SDS011;42217;50.422;7.210;2022-07-30T07:42:59;6.80;;;4.80;;
56307;SDS011;42217;50.422;7.210;2022-07-30T07:45:25;9.93;;;4.45;;
56307;SDS011;42217;50.422;7.210;2022-07-30T07:47:51;7.60;;;3.70;;
56307;SDS011;42217;50.422;7.210;2022-07-30T07:50:17;6.70;;;4.35;;
56307;SDS011;42217;50.422;7.210;2022-07-30T07:52:43;8.05;;;4.15;;
56307;SDS011;42217;50.422;7.210;2022-07-30T07:55:09;4.70;;;3.10;;
56307;SDS011;42217;50.422;7.210;2022-07-30T07:57:42;8.38;;;3.67;;
56307;SDS011;42217;50.422;7.210;2022-07-30T08:00:09;10.82;;;3.80;;
56307;SDS011;42217;50.422;7.210;2022-07-30T08:02:36;8.23;;;3.88;;
56307;SDS011;42217;50.422;7.210;2022-07-30T08:05:03;6.40;;;3.60;;
56307;SDS011;42217;50.422;7.210;2022-07-30T08:07:30;7.15;;;3.80;;
56307;SDS011;42217;50.422;7.210;2022-07-30T08:09:56;15.77;;;5.18;;
56307;SDS011;42217;50.422;7.210;2022-07-30T08:12:21;9.98;;;4.72;;
56307;SDS011;42217;50.422;7.210;2022-07-30T08:14:48;10.52;;;4.00;;
56307;SDS011;42217;50.422;7.210;2022-07-30T08:17:13;10.88;;;3.22;;
56307;SDS011;42217;50.422;7.210;2022-07-30T08:19:39;8.73;;;4.25;;
56307;SDS011;42217;50.422;7.210;2022-07-30T08:22:05;8.43;;;3.33;;
56307;SDS011;42217;50.422;7.210;2022-07-30T08:24:31;12.88;;;4.07;;
56307;SDS011;42217;50.422;7.210;2022-07-30T08:26:57;10.98;;;4.93;;
56307;SDS011;42217;50.422;7.210;2022-07-30T08:29:23;5.95;;;4.00;;
56307;SDS011;42217;50.422;7.210;2022-07-30T08:31:48;6.88;;;3.38;;
56307;SDS011;42217;50.422;7.210;2022-07-30T08:34:14;6.45;;;3.35;;
56307;SDS011;42217;50.422;7.210;2022-07-30T08:36:40;5.93;;;3.90;;
56307;SDS011;42217;50.422;7.210;2022-07-30T08:39:06;8.85;;;3.35;;
56307;SDS011;42217;50.422;7.210;2022-07-30T08:41:32;14.63;;;3.55;;
56307;SDS011;42217;50.422;7.210;2022-07-30T08:44:00;6.78;;;3.67;;
56307;SDS011;42217;50.422;7.210;2022-07-30T08:46:28;6.97;;;3.60;;
56307;SDS011;42217;50.422;7.210;2022-07-30T08:48:56;10.93;;;4.35;;
56307;SDS011;42217;50.422;7.210;2022-07-30T08:51:22;7.95;;;4.30;;
56307;SDS011;42217;50.422;7.210;2022-07-30T08:53:48;5.32;;;3.03;;
56307;SDS011;42217;50.422;7.210;2022-07-30T08:56:14;5.65;;;3.83;;
56307;SDS011;42217;50.422;7.210;2022-07-30T08:58:41;15.98;;;4.78;;
56307;SDS011;42217;50.422;7.210;2022-07-30T09:01:07;7.55;;;3.33;;
56307;SDS011;42217;50.422;7.210;2022-07-30T09:03:33;7.78;;;4.05;;
56307;SDS011;42217;50.422;7.210;2022-07-30T09:06:01;7.00;;;4.72;;
56307;SDS011;42217;50.422;7.210;2022-07-30T09:08:28;11.48;;;4.70;;
56307;SDS011;42217;50.422;7.210;2022-07-30T09:10:54;7.18;;;4.43;;
56307;SDS011;42217;50.422;7.210;2022-07-30T09:13:30;9.20;;;4.55;;
56307;SDS011;42217;50.422;7.210;2022-07-30T09:15:59;8.68;;;4.45;;
56307;SDS011;42217;50.422;7.210;2022-07-30T09:18:46;14.55;;;3.67;;
56307;SDS011;42217;50.422;7.210;2022-07-30T09:23:41;11.20;;;4.88;;
56307;SDS011;42217;50.422;7.210;2022-07-30T09:26:51;7.28;;;4.05;;
56307;SDS011;42217;50.422;7.210;2022-07-30T09:29:19;7.35;;;4.22;;
56307;SDS011;42217;50.422;7.210;2022-07-30T09:31:57;11.27;;;5.15;;
56307;SDS011;42217;50.422;7.210;2022-07-30T09:34:34;9.70;;;4.28;;
56307;SDS011;42217;50.422;7.210;2022-07-30T09:37:15;7.57;;;4.70;;
56307;SDS011;42217;50.422;7.210;2022-07-30T09:39:42;7.05;;;4.97;;
56307;SDS011;42217;50.422;7.210;2022-07-30T09:42:21;10.15;;;4.13;;
56307;SDS011;42217;50.422;7.210;2022-07-30T09:44:49;14.50;;;4.93;;
56307;SDS011;42217;50.422;7.210;2022-07-30T09:47:32;8.77;;;4.40;;
56307;SDS011;42217;50.422;7.210;2022-07-30T09:50:07;12.23;;;4.72;;
56307;SDS011;42217;50.422;7.210;2022-07-30T09:52:34;8.07;;;5.40;;
56307;SDS011;42217;50.422;7.210;2022-07-30T09:55:01;10.48;;;5.78;;
56307;SDS011;42217;50.422;7.210;2022-07-30T09:57:27;8.35;;;4.88;;
56307;SDS011;42217;50.422;7.210;2022-07-30T09:59:53;9.13;;;4.80;;
56307;SDS011;42217;50.422;7.210;2022-07-30T10:02:29;15.88;;;6.53;;
56307;SDS011;42217;50.422;7.210;2022-07-30T10:05:17;8.43;;;4.70;;
56307;SDS011;42217;50.422;7.210;2022-07-30T10:07:56;12.60;;;5.18;;
56307;SDS011;42217;50.422;7.210;2022-07-30T10:10:25;9.38;;;5.15;;
56307;SDS011;42217;50.422;7.210;2022-07-30T10:12:54;9.82;;;4.68;;
56307;SDS011;42217;50.422;7.210;2022-07-30T10:15:30;12.27;;;4.80;;
56307;SDS011;42217;50.422;7.210;2022-07-30T10:18:01;7.28;;;4.10;;
56307;SDS011;42217;50.422;7.210;2022-07-30T10:20:29;7.85;;;3.88;;
56307;SDS011;42217;50.422;7.210;2022-07-30T10:22:55;12.70;;;4.68;;
56307;SDS011;42217;50.422;7.210;2022-07-30T10:25:23;11.48;;;4.40;;
56307;SDS011;42217;50.422;7.210;2022-07-30T10:27:50;11.65;;;4.60;;
56307;SDS011;42217;50.422;7.210;2022-07-30T10:30:17;9.43;;;4.07;;
56307;SDS011;42217;50.422;7.210;2022-07-30T10:32:44;14.38;;;4.70;;
56307;SDS011;42217;50.422;7.210;2022-07-30T10:35:10;8.93;;;5.22;;
56307;SDS011;42217;50.422;7.210;2022-07-30T10:37:39;9.75;;;4.28;;
56307;SDS011;42217;50.422;7.210;2022-07-30T10:46:05;9.27;;;4.72;;
56307;SDS011;42217;50.422;7.210;2022-07-30T10:48:51;14.25;;;5.20;;
56307;SDS011;42217;50.422;7.210;2022-07-30T10:51:19;14.50;;;5.10;;
56307;SDS011;42217;50.422;7.210;2022-07-30T10:53:46;11.35;;;5.18;;
56307;SDS011;42217;50.422;7.210;2022-07-30T10:56:13;12.10;;;5.55;;
56307;SDS011;42217;50.422;7.210;2022-07-30T10:58:58;10.65;;;5.10;;
56307;SDS011;42217;50.422;7.210;2022-07-30T11:06:47;20.98;;;5.30;;
56307;SDS011;42217;50.422;7.210;2022-07-30T11:11:58;12.48;;;5.13;;
56307;SDS011;42217;50.422;7.210;2022-07-30T11:14:53;8.95;;;5.95;;
56307;SDS011;42217;50.422;7.210;2022-07-30T11:17:10;14.80;;;5.20;;
56307;SDS011;42217;50.422;7.210;2022-07-30T11:25:03;8.57;;;4.50;;
56307;SDS011;42217;50.422;7.210;2022-07-30T11:27:39;14.05;;;4.90;;
56307;SDS011;42217;50.422;7.210;2022-07-30T11:38:16;9.85;;;4.20;;
56307;SDS011;42217;50.422;7.210;2022-07-30T11:40:38;6.80;;;4.47;;
56307;SDS011;42217;50.422;7.210;2022-07-30T11:43:43;10.52;;;3.92;;
56307;SDS011;42217;50.422;7.210;2022-07-30T11:46:18;10.55;;;3.75;;
56307;SDS011;42217;50.422;7.210;2022-07-30T11:48:54;8.57;;;3.85;;
56307;SDS011;42217;50.422;7.210;2022-07-30T11:51:21;11.75;;;4.28;;
56307;SDS011;42217;50.422;7.210;2022-07-30T11:54:03;7.13;;;3.90;;
56307;SDS011;42217;50.422;7.210;2022-07-30T11:56:30;9.40;;;5.00;;
56307;SDS011;42217;50.422;7.210;2022-07-30T11:59:00;5.45;;;3.38;;
56307;SDS011;42217;50.422;7.210;2022-07-30T12:01:30;14.82;;;4.55;;
56307;SDS011;42217;50.422;7.210;2022-07-30T12:03:57;8.07;;;3.72;;
56307;SDS011;42217;50.422;7.210;2022-07-30T12:06:27;8.07;;;3.60;;
56307;SDS011;42217;50.422;7.210;2022-07-30T12:08:56;9.68;;;3.67;;
56307;SDS011;42217;50.422;7.210;2022-07-30T12:11:22;7.55;;;3.90;;
56307;SDS011;42217;50.422;7.210;2022-07-30T12:13:56;8.95;;;3.10;;
56307;SDS011;42217;50.422;7.210;2022-07-30T12:16:23;6.40;;;2.88;;
56307;SDS011;42217;50.422;7.210;2022-07-30T12:18:50;8.32;;;2.80;;
56307;SDS011;42217;50.422;7.210;2022-07-30T12:21:17;4.25;;;2.60;;
56307;SDS011;42217;50.422;7.210;2022-07-30T12:24:03;6.20;;;3.45;;
56307;SDS011;42217;50.422;7.210;2022-07-30T12:26:34;3.63;;;2.33;;
56307;SDS011;42217;50.422;7.210;2022-07-30T12:29:02;4.63;;;2.45;;
56307;SDS011;42217;50.422;7.210;2022-07-30T12:31:29;10.25;;;3.15;;
56307;SDS011;42217;50.422;7.210;2022-07-30T12:33:57;5.68;;;2.63;;
56307;SDS011;42217;50.422;7.210;2022-07-30T12:36:28;6.55;;;2.42;;
56307;SDS011;42217;50.422;7.210;2022-07-30T12:38:56;4.50;;;2.50;;
56307;SDS011;42217;50.422;7.210;2022-07-30T12:41:23;6.93;;;3.03;;
56307;SDS011;42217;50.422;7.210;2022-07-30T12:46:59;7.68;;;1.85;;
56307;SDS011;42217;50.422;7.210;2022-07-30T12:49:29;5.60;;;2.15;;
56307;SDS011;42217;50.422;7.210;2022-07-30T12:51:55;6.35;;;2.20;;
56307;SDS011;42217;50.422;7.210;2022-07-30T12:54:21;5.25;;;2.25;;
56307;SDS011;42217;50.422;7.210;2022-07-30T12:59:29;3.60;;;1.70;;
56307;SDS011;42217;50.422;7.210;2022-07-30T13:01:55;7.30;;;2.35;;
56307;SDS011;42217;50.422;7.210;2022-07-30T13:04:22;3.00;;;1.50;;
56307;SDS011;42217;50.422;7.210;2022-07-30T13:09:46;4.10;;;1.73;;
56307;SDS011;42217;50.422;7.210;2022-07-30T13:12:12;2.38;;;1.88;;
56307;SDS011;42217;50.422;7.210;2022-07-30T13:14:38;2.63;;;1.55;;
56307;SDS011;42217;50.422;7.210;2022-07-30T13:17:05;3.42;;;1.70;;
56307;SDS011;42217;50.422;7.210;2022-07-30T13:19:33;7.35;;;2.25;;
56307;SDS011;42217;50.422;7.210;2022-07-30T13:21:59;3.50;;;1.70;;
56307;SDS011;42217;50.422;7.210;2022-07-30T13:24:25;3.55;;;1.73;;
56307;SDS011;42217;50.422;7.210;2022-07-30T13:26:51;4.30;;;1.50;;
56307;SDS011;42217;50.422;7.210;2022-07-30T13:29:17;1.70;;;1.15;;
56307;SDS011;42217;50.422;7.210;2022-07-30T13:31:42;2.03;;;1.30;;
56307;SDS011;42217;50.422;7.210;2022-07-30T13:34:08;2.10;;;1.35;;
56307;SDS011;42217;50.422;7.210;2022-07-30T13:36:35;3.70;;;1.58;;
56307;SDS011;42217;50.422;7.210;2022-07-30T13:39:00;5.63;;;1.67;;
56307;SDS011;42217;50.422;7.210;2022-07-30T13:41:27;3.13;;;1.30;;
56307;SDS011;42217;50.422;7.210;2022-07-30T13:43:53;4.50;;;1.08;;
56307;SDS011;42217;50.422;7.210;2022-07-30T13:46:19;4.15;;;1.30;;
56307;SDS011;42217;50.422;7.210;2022-07-30T13:48:45;5.25;;;1.77;;
56307;SDS011;42217;50.422;7.210;2022-07-30T13:51:10;3.15;;;1.73;;
56307;SDS011;42217;50.422;7.210;2022-07-30T13:53:36;2.95;;;1.20;;
56307;SDS011;42217;50.422;7.210;2022-07-30T13:56:02;2.03;;;1.30;;
56307;SDS011;42217;50.422;7.210;2022-07-30T13:58:28;14.30;;;2.25;;
56307;SDS011;42217;50.422;7.210;2022-07-30T14:00:56;2.35;;;1.33;;
56307;SDS011;42217;50.422;7.210;2022-07-30T14:03:23;1.75;;;1.30;;
56307;SDS011;42217;50.422;7.210;2022-07-30T14:05:48;3.47;;;1.42;;
56307;SDS011;42217;50.422;7.210;2022-07-30T14:08:14;3.85;;;1.52;;
56307;SDS011;42217;50.422;7.210;2022-07-30T14:10:40;2.95;;;1.23;;
56307;SDS011;42217;50.422;7.210;2022-07-30T14:13:06;3.13;;;1.48;;
56307;SDS011;42217;50.422;7.210;2022-07-30T14:15:33;7.50;;;1.38;;
56307;SDS011;42217;50.422;7.210;2022-07-30T14:17:59;4.07;;;1.55;;
56307;SDS011;42217;50.422;7.210;2022-07-30T14:20:26;5.85;;;1.60;;
56307;SDS011;42217;50.422;7.210;2022-07-30T14:22:57;4.18;;;1.30;;
56307;SDS011;42217;50.422;7.210;2022-07-30T14:25:36;1.73;;;1.17;;
56307;SDS011;42217;50.422;7.210;2022-07-30T14:28:07;3.78;;;2.00;;
56307;SDS011;42217;50.422;7.210;2022-07-30T14:30:33;2.35;;;1.50;;
56307;SDS011;42217;50.422;7.210;2022-07-30T14:33:00;5.60;;;1.83;;
56307;SDS011;42217;50.422;7.210;2022-07-30T14:35:26;3.80;;;1.38;;
56307;SDS011;42217;50.422;7.210;2022-07-30T14:37:51;5.40;;;1.73;;
56307;SDS011;42217;50.422;7.210;2022-07-30T14:40:17;7.03;;;1.15;;
56307;SDS011;42217;50.422;7.210;2022-07-30T14:42:43;4.28;;;1.45;;
56307;SDS011;42217;50.422;7.210;2022-07-30T14:45:09;3.33;;;1.67;;
56307;SDS011;42217;50.422;7.210;2022-07-30T14:47:35;5.43;;;2.40;;
56307;SDS011;42217;50.422;7.210;2022-07-30T14:50:03;3.10;;;1.60;;
56307;SDS011;42217;50.422;7.210;2022-07-30T14:52:29;4.55;;;1.55;;
56307;SDS011;42217;50.422;7.210;2022-07-30T14:54:58;3.92;;;1.75;;
56307;SDS011;42217;50.422;7.210;2022-07-30T14:57:25;2.90;;;1.55;;
56307;SDS011;42217;50.422;7.210;2022-07-30T14:59:50;7.15;;;1.80;;
56307;SDS011;42217;50.422;7.210;2022-07-30T15:02:16;5.10;;;2.08;;
56307;SDS011;42217;50.422;7.210;2022-07-30T15:04:42;3.55;;;1.83;;
56307;SDS011;42217;50.422;7.210;2022-07-30T15:07:07;6.13;;;2.10;;
56307;SDS011;42217;50.422;7.210;2022-07-30T15:09:33;4.35;;;2.40;;
56307;SDS011;42217;50.422;7.210;2022-07-30T15:11:59;5.10;;;1.83;;
56307;SDS011;42217;50.422;7.210;2022-07-30T15:14:26;6.05;;;2.03;;
56307;SDS011;42217;50.422;7.210;2022-07-30T15:16:52;5.28;;;1.38;;
56307;SDS011;42217;50.422;7.210;2022-07-30T15:19:17;2.75;;;1.92;;
56307;SDS011;42217;50.422;7.210;2022-07-30T15:21:43;4.80;;;2.28;;
56307;SDS011;42217;50.422;7.210;2022-07-30T15:24:09;6.28;;;1.88;;
56307;SDS011;42217;50.422;7.210;2022-07-30T15:26:35;3.75;;;1.67;;
56307;SDS011;42217;50.422;7.210;2022-07-30T15:29:00;3.70;;;1.50;;